Time;durP1;ratioP1;P1;durP2;ratioP2;P2;SDS_P1;SDS_P2;PMS_P1;PMS_P2;Temp;Humidity;BMP_temperature;BMP_pressure;BME280_temperature;BME280_humidity;BME280_pressure;Samples;Min_cycle;Max_cycle;Signal;HPM_P1;HPM_P2
2021/06/17 00:01:32;;;;;;;22.98;14.30;;;;;;;;;;5093609;28;20106;-46
2021/06/17 00:03:59;;;;;;;22.73;12.88;;;;;;;;;;5093897;28;20059;-47
2021/06/17 00:06:25;;;;;;;9.75;4.75;;;;;;;;;;5093842;28;20065;-46
2021/06/17 00:08:51;;;;;;;7.07;4.05;;;;;;;;;;5093131;28;20440;-46
2021/06/17 00:11:17;;;;;;;6.35;3.80;;;;;;;;;;5093578;28;20024;-45
2021/06/17 00:13:43;;;;;;;8.23;3.97;;;;;;;;;;5093197;28;20415;-45
2021/06/17 00:16:10;;;;;;;6.28;3.05;;;;;;;;;;5093480;28;20020;-45
2021/06/17 00:18:36;;;;;;;15.95;9.88;;;;;;;;;;5093599;28;20032;-46
2021/06/17 00:21:03;;;;;;;10.20;6.18;;;;;;;;;;5093433;28;20028;-46
2021/06/17 00:23:32;;;;;;;9.77;6.25;;;;;;;;;;5093073;28;20056;-48
2021/06/17 00:25:59;;;;;;;7.47;5.05;;;;;;;;;;5093326;28;20069;-45
2021/06/17 00:28:26;;;;;;;6.72;4.10;;;;;;;;;;5093265;28;20024;-45
2021/06/17 00:30:52;;;;;;;9.05;4.60;;;;;;;;;;5093283;28;20421;-47
2021/06/17 00:33:19;;;;;;;5.63;3.53;;;;;;;;;;5093099;28;20024;-45
2021/06/17 00:35:45;;;;;;;8.57;5.20;;;;;;;;;;5093165;28;20027;-45
2021/06/17 00:38:11;;;;;;;11.75;4.38;;;;;;;;;;5093080;28;20055;-44
2021/06/17 00:40:38;;;;;;;18.38;12.45;;;;;;;;;;5093169;28;20089;-45
2021/06/17 00:43:04;;;;;;;16.27;10.75;;;;;;;;;;5090808;28;20036;-44
2021/06/17 00:45:32;;;;;;;20.52;14.05;;;;;;;;;;5093165;28;20378;-45
2021/06/17 00:47:59;;;;;;;8.10;4.97;;;;;;;;;;5093167;28;20016;-44
2021/06/17 00:50:27;;;;;;;21.17;12.73;;;;;;;;;;5093010;28;20036;-46
2021/06/17 00:52:53;;;;;;;24.38;14.82;;;;;;;;;;5092813;28;20093;-46
2021/06/17 00:55:19;;;;;;;9.73;6.40;;;;;;;;;;5092867;28;20081;-46
2021/06/17 00:57:45;;;;;;;14.57;8.32;;;;;;;;;;5092947;28;20194;-44
2021/06/17 01:00:13;;;;;;;4.25;3.22;;;;;;;;;;5092752;28;20016;-46
2021/06/17 01:02:39;;;;;;;5.70;4.13;;;;;;;;;;5092976;28;20052;-47
2021/06/17 01:05:12;;;;;;;9.50;6.30;;;;;;;;;;5092932;28;20085;-49
2021/06/17 01:07:43;;;;;;;9.00;6.38;;;;;;;;;;5092715;28;20020;-48
2021/06/17 01:10:15;;;;;;;8.93;6.65;;;;;;;;;;5092842;28;20042;-47
2021/06/17 01:13:02;;;;;;;9.02;5.90;;;;;;;;;;5092730;28;20023;-45
2021/06/17 01:15:30;;;;;;;9.57;5.63;;;;;;;;;;5093248;28;20040;-46
2021/06/17 01:17:59;;;;;;;6.57;4.95;;;;;;;;;;5092872;28;20021;-49
2021/06/17 01:20:34;;;;;;;6.30;5.70;;;;;;;;;;5092680;28;20021;-46
2021/06/17 01:23:19;;;;;;;7.47;6.45;;;;;;;;;;5092861;28;20044;-49
2021/06/17 01:26:04;;;;;;;7.38;5.60;;;;;;;;;;5092978;28;20017;-47
2021/06/17 01:28:31;;;;;;;5.15;4.53;;;;;;;;;;5092686;28;20166;-46
2021/06/17 01:31:08;;;;;;;5.72;4.20;;;;;;;;;;5092495;28;20131;-48
2021/06/17 01:33:36;;;;;;;5.63;3.42;;;;;;;;;;5092629;28;20028;-47
2021/06/17 01:36:03;;;;;;;5.20;3.70;;;;;;;;;;5091310;28;20391;-48
2021/06/17 01:38:31;;;;;;;4.15;3.05;;;;;;;;;;5092463;28;20357;-47
2021/06/17 01:40:57;;;;;;;12.52;6.50;;;;;;;;;;5092426;28;20502;-46
2021/06/17 01:43:24;;;;;;;26.98;14.82;;;;;;;;;;5092258;28;20108;-47
2021/06/17 01:45:51;;;;;;;12.88;7.80;;;;;;;;;;5092409;28;20028;-45
2021/06/17 01:48:17;;;;;;;5.28;4.38;;;;;;;;;;5092264;28;20511;-47
2021/06/17 01:50:45;;;;;;;13.10;7.18;;;;;;;;;;5092393;28;20054;-46
2021/06/17 01:53:12;;;;;;;9.98;6.57;;;;;;;;;;5092126;28;20104;-46
2021/06/17 01:55:39;;;;;;;27.13;17.67;;;;;;;;;;5095912;28;20048;-47
2021/06/17 01:58:06;;;;;;;14.15;8.70;;;;;;;;;;5096010;28;20031;-46
2021/06/17 02:00:32;;;;;;;9.38;5.00;;;;;;;;;;5096162;28;20031;-46
2021/06/17 02:03:00;;;;;;;7.18;3.60;;;;;;;;;;5095994;28;20417;-47
2021/06/17 02:05:26;;;;;;;9.00;5.20;;;;;;;;;;5095904;28;20031;-45
2021/06/17 02:07:52;;;;;;;6.63;3.80;;;;;;;;;;5095789;28;20471;-48
2021/06/17 02:10:20;;;;;;;5.75;4.38;;;;;;;;;;5095619;28;20409;-47
2021/06/17 02:12:46;;;;;;;4.95;4.03;;;;;;;;;;5094232;28;20505;-46
2021/06/17 02:15:13;;;;;;;5.57;3.92;;;;;;;;;;5095534;28;20052;-47
2021/06/17 02:17:42;;;;;;;7.63;4.40;;;;;;;;;;5095739;28;20028;-48
2021/06/17 02:20:08;;;;;;;8.43;5.25;;;;;;;;;;5095477;28;20027;-47
2021/06/17 02:22:35;;;;;;;6.88;4.20;;;;;;;;;;5095429;28;20020;-46
2021/06/17 02:25:02;;;;;;;5.18;3.97;;;;;;;;;;5095287;28;20023;-45
2021/06/17 02:27:29;;;;;;;5.78;3.63;;;;;;;;;;5095463;28;20020;-47
2021/06/17 02:29:57;;;;;;;4.28;3.30;;;;;;;;;;5095402;28;20032;-46
2021/06/17 02:32:24;;;;;;;8.30;3.33;;;;;;;;;;5095597;28;20429;-47
2021/06/17 02:34:51;;;;;;;7.72;3.95;;;;;;;;;;5095472;28;20456;-47
2021/06/17 02:37:17;;;;;;;6.32;3.60;;;;;;;;;;5095491;28;20020;-48
2021/06/17 02:39:45;;;;;;;7.82;3.45;;;;;;;;;;5095176;28;20032;-47
2021/06/17 02:42:15;;;;;;;4.88;3.40;;;;;;;;;;5095278;28;20024;-46
2021/06/17 02:44:43;;;;;;;4.43;3.67;;;;;;;;;;5095127;28;20115;-47
2021/06/17 02:47:09;;;;;;;7.30;3.65;;;;;;;;;;5095247;28;20341;-48
2021/06/17 02:49:36;;;;;;;6.30;3.58;;;;;;;;;;5095050;28;20032;-46
2021/06/17 02:52:02;;;;;;;5.07;3.28;;;;;;;;;;5095117;28;20051;-47
2021/06/17 02:54:28;;;;;;;5.55;3.38;;;;;;;;;;5094876;28;20032;-46
2021/06/17 02:57:07;;;;;;;6.03;3.58;;;;;;;;;;5094850;28;20035;-46
2021/06/17 02:59:52;;;;;;;5.18;4.40;;;;;;;;;;5094871;28;20023;-46
2021/06/17 03:02:24;;;;;;;6.85;4.55;;;;;;;;;;5094936;28;20020;-47
2021/06/17 03:04:53;;;;;;;8.40;4.30;;;;;;;;;;5094662;28;20028;-47
2021/06/17 03:07:25;;;;;;;10.27;4.40;;;;;;;;;;5093922;28;20108;-48
2021/06/17 03:10:17;;;;;;;5.90;4.63;;;;;;;;;;5094537;28;20091;-46
2021/06/17 03:12:45;;;;;;;8.27;4.88;;;;;;;;;;5093470;28;20036;-46
2021/06/17 03:15:14;;;;;;;8.40;4.47;;;;;;;;;;5094395;28;20107;-47
2021/06/17 03:17:45;;;;;;;6.82;4.47;;;;;;;;;;5094479;28;20028;-49
2021/06/17 03:20:11;;;;;;;12.63;4.32;;;;;;;;;;5094506;28;20531;-48
2021/06/17 03:22:39;;;;;;;7.30;4.28;;;;;;;;;;5094523;28;20103;-47
2021/06/17 03:25:09;;;;;;;6.45;3.90;;;;;;;;;;5094145;28;20031;-46
2021/06/17 03:27:36;;;;;;;7.53;4.20;;;;;;;;;;5094456;28;20023;-47
2021/06/17 03:30:04;;;;;;;7.53;4.32;;;;;;;;;;5094136;28;20465;-47
2021/06/17 03:32:32;;;;;;;9.00;4.70;;;;;;;;;;5094077;28;20430;-46
2021/06/17 03:34:59;;;;;;;8.93;4.20;;;;;;;;;;5094341;28;20035;-48
2021/06/17 03:37:27;;;;;;;10.13;4.63;;;;;;;;;;5094424;28;20043;-47
2021/06/17 03:39:54;;;;;;;9.70;4.63;;;;;;;;;;5094312;28;20111;-44
2021/06/17 03:42:21;;;;;;;6.32;4.75;;;;;;;;;;5093205;28;20016;-48
2021/06/17 03:44:48;;;;;;;8.88;4.10;;;;;;;;;;5094117;28;20453;-48
2021/06/17 03:47:14;;;;;;;8.57;4.20;;;;;;;;;;5093941;28;20016;-48
2021/06/17 03:49:45;;;;;;;6.43;4.03;;;;;;;;;;5094356;28;20031;-47
2021/06/17 03:52:15;;;;;;;8.97;4.53;;;;;;;;;;5094107;28;20408;-46
2021/06/17 03:54:42;;;;;;;17.83;7.40;;;;;;;;;;5093793;28;20480;-47
2021/06/17 03:57:08;;;;;;;10.30;6.00;;;;;;;;;;5093901;28;20032;-47
2021/06/17 03:59:42;;;;;;;7.85;4.53;;;;;;;;;;5093722;28;20022;-48
2021/06/17 04:02:08;;;;;;;8.88;4.95;;;;;;;;;;5094055;28;20372;-47
2021/06/17 04:04:35;;;;;;;11.68;5.88;;;;;;;;;;5093801;28;20099;-47
2021/06/17 04:07:03;;;;;;;6.10;4.68;;;;;;;;;;5093821;28;20034;-47
2021/06/17 04:09:30;;;;;;;9.27;4.80;;;;;;;;;;5093347;28;20035;-46
2021/06/17 04:11:59;;;;;;;6.90;4.50;;;;;;;;;;5093477;28;20046;-47
2021/06/17 04:14:26;;;;;;;9.27;4.35;;;;;;;;;;5093111;28;20048;-48
2021/06/17 04:16:53;;;;;;;7.47;4.00;;;;;;;;;;5093342;28;20021;-47
2021/06/17 04:19:23;;;;;;;6.03;3.80;;;;;;;;;;5092024;28;20068;-47
2021/06/17 04:21:51;;;;;;;7.80;4.22;;;;;;;;;;5093378;28;20027;-47
2021/06/17 04:24:20;;;;;;;7.72;4.88;;;;;;;;;;5093081;28;20024;-47
2021/06/17 04:26:46;;;;;;;12.95;5.03;;;;;;;;;;5093451;28;20124;-47
2021/06/17 04:29:15;;;;;;;13.73;9.40;;;;;;;;;;5092997;28;20514;-46
2021/06/17 04:31:42;;;;;;;12.85;7.30;;;;;;;;;;5093143;28;20067;-47
2021/06/17 04:34:08;;;;;;;13.38;6.43;;;;;;;;;;5093272;28;20028;-46
2021/06/17 04:36:34;;;;;;;7.47;4.07;;;;;;;;;;5092995;28;20024;-46
2021/06/17 04:39:00;;;;;;;4.60;3.65;;;;;;;;;;5093016;28;20032;-46
2021/06/17 04:41:26;;;;;;;5.78;3.47;;;;;;;;;;5092933;28;20069;-47
2021/06/17 04:43:53;;;;;;;4.35;3.45;;;;;;;;;;5092802;28;20032;-47
2021/06/17 04:46:19;;;;;;;3.42;2.72;;;;;;;;;;5091687;28;20388;-47
2021/06/17 04:48:46;;;;;;;6.80;3.67;;;;;;;;;;5093022;28;20024;-47
2021/06/17 04:51:13;;;;;;;9.23;4.95;;;;;;;;;;5093071;28;20468;-47
2021/06/17 04:53:39;;;;;;;8.60;3.63;;;;;;;;;;5093061;28;20024;-47
2021/06/17 04:56:05;;;;;;;5.68;3.28;;;;;;;;;;5092993;28;20025;-46
2021/06/17 04:58:35;;;;;;;5.07;3.20;;;;;;;;;;5092902;28;20028;-47
2021/06/17 05:01:05;;;;;;;3.53;2.60;;;;;;;;;;5093085;28;20508;-47
2021/06/17 05:03:31;;;;;;;4.68;2.75;;;;;;;;;;5093036;28;20024;-47
2021/06/17 05:05:59;;;;;;;2.80;2.53;;;;;;;;;;5092892;28;20032;-47
2021/06/17 05:10:53;;;;;;;5.22;3.10;;;;;;;;;;5092726;28;20101;-47
2021/06/17 05:13:25;;;;;;;4.88;3.22;;;;;;;;;;5092402;28;20028;-46
2021/06/17 05:15:52;;;;;;;5.13;3.83;;;;;;;;;;5092621;28;20089;-46
2021/06/17 05:18:19;;;;;;;6.00;3.53;;;;;;;;;;5092704;28;20486;-47
2021/06/17 05:20:45;;;;;;;5.28;3.20;;;;;;;;;;5092660;28;20027;-47
2021/06/17 05:23:16;;;;;;;8.50;4.18;;;;;;;;;;5092603;28;20476;-47
2021/06/17 05:25:42;;;;;;;6.28;4.50;;;;;;;;;;5092489;28;20093;-48
2021/06/17 05:28:09;;;;;;;12.93;5.20;;;;;;;;;;5092583;28;20020;-48
2021/06/17 05:30:36;;;;;;;8.15;3.55;;;;;;;;;;5096320;28;20038;-48
2021/06/17 05:33:02;;;;;;;6.35;3.30;;;;;;;;;;5096725;28;20027;-47
2021/06/17 05:35:28;;;;;;;4.18;2.80;;;;;;;;;;5097045;28;20032;-48
2021/06/17 05:37:55;;;;;;;3.13;2.60;;;;;;;;;;5096737;28;20092;-51
2021/06/17 05:40:21;;;;;;;4.43;3.38;;;;;;;;;;5096831;28;20035;-47
2021/06/17 05:42:49;;;;;;;17.58;8.95;;;;;;;;;;5096491;28;20119;-47
2021/06/17 05:45:15;;;;;;;6.65;3.63;;;;;;;;;;5096572;28;20023;-47
2021/06/17 05:47:41;;;;;;;5.78;4.43;;;;;;;;;;5096471;28;20077;-46
2021/06/17 05:50:07;;;;;;;5.40;4.50;;;;;;;;;;5096219;28;20031;-47
2021/06/17 05:52:33;;;;;;;5.30;3.20;;;;;;;;;;5096323;28;20016;-47
2021/06/17 05:55:00;;;;;;;5.18;3.88;;;;;;;;;;5095124;28;20044;-45
2021/06/17 05:57:26;;;;;;;7.88;4.10;;;;;;;;;;5096144;28;20380;-45
2021/06/17 05:59:52;;;;;;;14.80;10.43;;;;;;;;;;5096429;28;20020;-47
2021/06/17 06:02:23;;;;;;;16.73;10.60;;;;;;;;;;5096094;28;20466;-48
2021/06/17 06:04:49;;;;;;;22.27;14.25;;;;;;;;;;5096142;28;20044;-47
2021/06/17 06:07:16;;;;;;;18.15;11.75;;;;;;;;;;5095980;28;20099;-47
2021/06/17 06:09:42;;;;;;;15.80;9.48;;;;;;;;;;5095748;28;20039;-46
2021/06/17 06:12:10;;;;;;;11.95;7.22;;;;;;;;;;5095850;28;20035;-47
2021/06/17 06:14:36;;;;;;;22.73;13.88;;;;;;;;;;5095480;28;20399;-47
2021/06/17 06:17:03;;;;;;;21.08;10.52;;;;;;;;;;5096176;28;20052;-47
2021/06/17 06:19:30;;;;;;;20.67;13.25;;;;;;;;;;5095790;28;20443;-47
2021/06/17 06:21:56;;;;;;;17.63;11.07;;;;;;;;;;5095686;28;20039;-46
2021/06/17 06:24:23;;;;;;;6.40;4.80;;;;;;;;;;5095650;28;20028;-46
2021/06/17 06:26:49;;;;;;;7.00;4.65;;;;;;;;;;5095462;28;20086;-46
2021/06/17 06:29:15;;;;;;;33.50;18.02;;;;;;;;;;5095548;28;20464;-47
2021/06/17 06:31:41;;;;;;;44.92;28.48;;;;;;;;;;5095533;28;20081;-47
2021/06/17 06:34:07;;;;;;;108.35;72.40;;;;;;;;;;5095611;28;20089;-47
2021/06/17 06:36:34;;;;;;;65.10;39.67;;;;;;;;;;5095333;28;20370;-47
2021/06/17 06:39:00;;;;;;;45.08;30.08;;;;;;;;;;5095457;28;20032;-45
2021/06/17 06:41:26;;;;;;;19.02;11.10;;;;;;;;;;5093911;28;20456;-47
2021/06/17 06:43:52;;;;;;;8.45;5.03;;;;;;;;;;5095157;28;20130;-47
2021/06/17 06:46:18;;;;;;;10.10;4.03;;;;;;;;;;5095186;28;20024;-46
2021/06/17 06:48:44;;;;;;;7.40;3.45;;;;;;;;;;5095049;28;20504;-46
2021/06/17 06:51:10;;;;;;;4.57;3.40;;;;;;;;;;5095163;28;20110;-47
2021/06/17 06:53:36;;;;;;;5.10;2.80;;;;;;;;;;5095031;28;20020;-45
2021/06/17 06:56:02;;;;;;;12.80;8.75;;;;;;;;;;5094901;28;20048;-46
2021/06/17 06:58:28;;;;;;;27.38;17.60;;;;;;;;;;5094718;28;20486;-47
2021/06/17 07:00:55;;;;;;;43.38;30.35;;;;;;;;;;5095027;28;20384;-45
2021/06/17 07:03:21;;;;;;;46.97;28.45;;;;;;;;;;5094993;28;20035;-46
2021/06/17 07:05:47;;;;;;;37.65;22.65;;;;;;;;;;5094972;28;20016;-45
2021/06/17 07:08:14;;;;;;;25.58;16.80;;;;;;;;;;5094907;28;20390;-44
2021/06/17 07:10:46;;;;;;;7.22;4.30;;;;;;;;;;5094493;28;20105;-45
2021/06/17 07:13:14;;;;;;;6.75;3.00;;;;;;;;;;5082897;28;20047;-47
2021/06/17 07:15:40;;;;;;;6.38;3.40;;;;;;;;;;5073846;28;20028;-45
2021/06/17 07:18:07;;;;;;;4.50;3.03;;;;;;;;;;5073945;28;20013;-46
2021/06/17 07:20:33;;;;;;;4.93;2.90;;;;;;;;;;5073628;28;20210;-45
2021/06/17 07:22:59;;;;;;;10.48;7.32;;;;;;;;;;5073802;28;20013;-45
2021/06/17 07:25:26;;;;;;;31.42;20.90;;;;;;;;;;5073586;28;20052;-45
2021/06/17 07:27:52;;;;;;;30.08;17.77;;;;;;;;;;5073578;28;20028;-45
2021/06/17 07:30:19;;;;;;;17.60;10.35;;;;;;;;;;5073539;28;20035;-45
2021/06/17 07:32:45;;;;;;;24.10;15.38;;;;;;;;;;5073671;28;20023;-43
2021/06/17 07:35:11;;;;;;;14.52;8.65;;;;;;;;;;5073818;28;20027;-44
2021/06/17 07:37:37;;;;;;;3.55;3.00;;;;;;;;;;5073723;28;20017;-45
2021/06/17 07:40:11;;;;;;;12.63;6.18;;;;;;;;;;5073700;28;20533;-44
2021/06/17 07:42:38;;;;;;;17.85;10.50;;;;;;;;;;5073286;28;20025;-44
2021/06/17 07:45:05;;;;;;;28.88;19.25;;;;;;;;;;5073474;28;20066;-43
2021/06/17 07:47:33;;;;;;;16.55;11.40;;;;;;;;;;5073357;28;20485;-44
2021/06/17 07:49:59;;;;;;;4.60;3.28;;;;;;;;;;5073234;28;20031;-44
2021/06/17 07:52:26;;;;;;;8.45;6.13;;;;;;;;;;5072951;28;20464;-44
2021/06/17 07:54:52;;;;;;;3.45;2.03;;;;;;;;;;5073187;28;20029;-44
2021/06/17 07:57:18;;;;;;;6.60;3.90;;;;;;;;;;5073037;28;20023;-44
2021/06/17 07:59:44;;;;;;;6.05;3.22;;;;;;;;;;5073137;28;20039;-44
2021/06/17 08:02:10;;;;;;;3.28;2.20;;;;;;;;;;5073124;28;20016;-44
2021/06/17 08:04:36;;;;;;;1.88;1.60;;;;;;;;;;5073826;28;20025;-44
2021/06/17 08:07:02;;;;;;;7.40;4.18;;;;;;;;;;5073393;28;20487;-44
2021/06/17 08:09:28;;;;;;;7.10;2.38;;;;;;;;;;5073281;28;20123;-44
2021/06/17 08:11:54;;;;;;;19.20;8.75;;;;;;;;;;5073225;28;20029;-43
2021/06/17 08:14:22;;;;;;;14.15;11.15;;;;;;;;;;5072934;28;20051;-44
2021/06/17 08:16:49;;;;;;;5.20;3.38;;;;;;;;;;5073128;28;20033;-45
2021/06/17 08:19:15;;;;;;;2.78;2.30;;;;;;;;;;5073126;28;20095;-44
2021/06/17 08:21:41;;;;;;;6.30;4.55;;;;;;;;;;5073061;28;20024;-45
2021/06/17 08:24:08;;;;;;;5.88;2.92;;;;;;;;;;5073250;28;20036;-44
2021/06/17 08:26:35;;;;;;;8.32;3.42;;;;;;;;;;5072905;28;20028;-44
2021/06/17 08:29:01;;;;;;;2.50;2.28;;;;;;;;;;5073168;28;20445;-44
2021/06/17 08:31:28;;;;;;;2.30;1.33;;;;;;;;;;5073098;28;20094;-45
2021/06/17 08:33:55;;;;;;;6.80;3.75;;;;;;;;;;5073062;28;20436;-45
2021/06/17 08:36:21;;;;;;;16.63;9.10;;;;;;;;;;5073060;28;20048;-44
2021/06/17 08:38:47;;;;;;;199.20;105.55;;;;;;;;;;5072717;28;20104;-44
2021/06/17 08:41:14;;;;;;;25.38;17.98;;;;;;;;;;5072639;28;20024;-44
2021/06/17 08:43:40;;;;;;;5.90;3.85;;;;;;;;;;5073025;28;20086;-42
2021/06/17 08:46:06;;;;;;;2.17;1.50;;;;;;;;;;5072999;28;20477;-44
2021/06/17 08:48:33;;;;;;;13.32;7.55;;;;;;;;;;5073023;28;20025;-44
2021/06/17 08:50:59;;;;;;;36.80;23.70;;;;;;;;;;5072753;28;20128;-43
2021/06/17 08:53:25;;;;;;;26.63;19.65;;;;;;;;;;5073373;28;20113;-42
2021/06/17 08:55:51;;;;;;;2.38;2.10;;;;;;;;;;5072546;28;20033;-43
2021/06/17 08:58:18;;;;;;;2.88;1.20;;;;;;;;;;5072765;28;20020;-42
2021/06/17 09:00:47;;;;;;;3.22;1.77;;;;;;;;;;5072891;28;20027;-50
2021/06/17 09:03:16;;;;;;;29.75;19.50;;;;;;;;;;5072897;28;20098;-46
2021/06/17 09:05:43;;;;;;;7.10;4.45;;;;;;;;;;5076781;28;20021;-42
2021/06/17 09:08:10;;;;;;;2.42;1.88;;;;;;;;;;5076669;28;20111;-43
2021/06/17 09:10:40;;;;;;;2.30;1.20;;;;;;;;;;5076687;28;20040;-45
2021/06/17 09:13:06;;;;;;;1.70;1.40;;;;;;;;;;5076743;28;20032;-44
2021/06/17 09:15:32;;;;;;;10.63;8.00;;;;;;;;;;5076725;28;20601;-47
2021/06/17 09:18:12;;;;;;;158.55;110.57;;;;;;;;;;5076746;28;20089;-43
2021/06/17 09:20:38;;;;;;;5.80;5.20;;;;;;;;;;5076696;28;20381;-48
2021/06/17 09:23:25;;;;;;;27.98;18.50;;;;;;;;;;5076556;28;20028;-43
2021/06/17 09:25:53;;;;;;;7.10;4.18;;;;;;;;;;5076439;28;20507;-42
2021/06/17 09:28:19;;;;;;;13.13;6.03;;;;;;;;;;5076866;28;20081;-44
2021/06/17 09:30:48;;;;;;;46.70;29.17;;;;;;;;;;5076362;28;20036;-43
2021/06/17 09:33:15;;;;;;;38.90;24.55;;;;;;;;;;5076359;28;20047;-43
2021/06/17 09:35:51;;;;;;;4.32;3.28;;;;;;;;;;5076283;28;20477;-43
2021/06/17 09:38:17;;;;;;;38.28;27.23;;;;;;;;;;5076228;28;20090;-43
2021/06/17 09:40:50;;;;;;;5.25;4.32;;;;;;;;;;5076247;28;20059;-43
2021/06/17 09:43:19;;;;;;;30.77;20.20;;;;;;;;;;5076283;28;20060;-45
2021/06/17 09:46:01;;;;;;;33.72;24.15;;;;;;;;;;5076181;28;20085;-43
2021/06/17 09:48:31;;;;;;;3.45;2.70;;;;;;;;;;5076047;28;20341;-43
2021/06/17 09:50:58;;;;;;;25.55;16.27;;;;;;;;;;5076002;28;20177;-41
2021/06/17 09:53:27;;;;;;;4.60;2.80;;;;;;;;;;5076008;28;20024;-41
2021/06/17 09:55:53;;;;;;;2.78;1.23;;;;;;;;;;5075841;28;20032;-41
2021/06/17 09:58:36;;;;;;;2.42;1.40;;;;;;;;;;5076217;28;20066;-44
2021/06/17 10:01:02;;;;;;;64.40;43.88;;;;;;;;;;5075859;28;20111;-43
2021/06/17 10:03:29;;;;;;;13.40;8.57;;;;;;;;;;5075801;28;20054;-43
2021/06/17 10:05:56;;;;;;;2.53;2.08;;;;;;;;;;5075774;28;20032;-42
2021/06/17 10:08:22;;;;;;;2.10;1.85;;;;;;;;;;5075758;28;20056;-42
2021/06/17 10:10:49;;;;;;;4.90;2.25;;;;;;;;;;5075695;28;20179;-45
2021/06/17 10:13:16;;;;;;;2.00;1.80;;;;;;;;;;5075337;28;20085;-44
2021/06/17 10:15:42;;;;;;;6.10;4.53;;;;;;;;;;5075242;28;20028;-43
2021/06/17 10:18:08;;;;;;;25.08;16.50;;;;;;;;;;5075986;28;20032;-43
2021/06/17 10:20:36;;;;;;;57.78;39.78;;;;;;;;;;5075637;28;20048;-43
2021/06/17 10:23:03;;;;;;;45.15;31.20;;;;;;;;;;5075428;28;20052;-43
2021/06/17 10:25:35;;;;;;;4.13;2.83;;;;;;;;;;5075436;28;20031;-42
2021/06/17 10:28:02;;;;;;;14.68;11.15;;;;;;;;;;5075237;28;20025;-42
2021/06/17 10:30:45;;;;;;;151.57;97.15;;;;;;;;;;5075163;28;20044;-43
2021/06/17 10:33:31;;;;;;;62.88;45.35;;;;;;;;;;5073899;28;20042;-43
2021/06/17 10:36:15;;;;;;;16.92;9.68;;;;;;;;;;5075345;28;20033;-43
2021/06/17 10:39:02;;;;;;;19.30;4.70;;;;;;;;;;5075201;28;20103;-43
2021/06/17 10:42:00;;;;;;;86.38;36.55;;;;;;;;;;5075023;28;20040;-43
2021/06/17 10:44:45;;;;;;;32.33;13.73;;;;;;;;;;5052771;28;20107;-43
2021/06/17 10:47:31;;;;;;;15.38;8.68;;;;;;;;;;5052701;28;20036;-44
2021/06/17 10:49:57;;;;;;;22.77;12.70;;;;;;;;;;5039508;28;20068;-43
2021/06/17 10:52:30;;;;;;;3.03;2.38;;;;;;;;;;5052834;28;20307;-43
2021/06/17 10:55:04;;;;;;;3.72;2.65;;;;;;;;;;5052937;28;20485;-43
2021/06/17 10:57:46;;;;;;;17.15;7.38;;;;;;;;;;5052717;28;20501;-43
2021/06/17 11:00:28;;;;;;;2.40;2.20;;;;;;;;;;5052784;28;20504;-43
2021/06/17 11:02:55;;;;;;;8.07;2.10;;;;;;;;;;5052778;28;20052;-43
2021/06/17 11:05:36;;;;;;;4.60;3.00;;;;;;;;;;5052777;28;20048;-43
2021/06/17 11:10:46;;;;;;;2.22;1.90;;;;;;;;;;5052488;28;20501;-44
2021/06/17 11:13:31;;;;;;;1.58;1.40;;;;;;;;;;5052072;28;20040;-43
2021/06/17 11:15:58;;;;;;;4.07;1.90;;;;;;;;;;5052462;28;20060;-44
2021/06/17 11:18:39;;;;;;;2.97;2.25;;;;;;;;;;5052367;28;20112;-43
2021/06/17 11:21:05;;;;;;;3.92;2.17;;;;;;;;;;5054369;28;20456;-46
2021/06/17 11:23:32;;;;;;;2.03;1.58;;;;;;;;;;5054263;28;20021;-44
2021/06/17 11:26:01;;;;;;;2.05;1.80;;;;;;;;;;5054163;28;20024;-44
2021/06/17 11:28:47;;;;;;;4.05;1.63;;;;;;;;;;5054073;28;20075;-44
2021/06/17 11:31:33;;;;;;;3.83;1.58;;;;;;;;;;5054214;28;20063;-44
2021/06/17 11:33:59;;;;;;;6.65;2.60;;;;;;;;;;5054106;28;20467;-43
2021/06/17 11:36:27;;;;;;;2.95;2.72;;;;;;;;;;5054155;28;20028;-43
2021/06/17 11:38:53;;;;;;;2.45;2.25;;;;;;;;;;5054027;28;20040;-44
2021/06/17 11:41:23;;;;;;;2.63;2.30;;;;;;;;;;5053996;28;20048;-43
2021/06/17 11:43:57;;;;;;;2.75;2.10;;;;;;;;;;5054167;28;20065;-43
2021/06/17 11:46:24;;;;;;;4.20;2.13;;;;;;;;;;5054185;28;20384;-44
2021/06/17 11:48:51;;;;;;;3.35;1.75;;;;;;;;;;5054045;28;20361;-44
2021/06/17 11:51:17;;;;;;;3.60;1.77;;;;;;;;;;5054218;28;20449;-43
2021/06/17 11:53:48;;;;;;;1.92;1.77;;;;;;;;;;5053987;28;20059;-44
2021/06/17 11:56:23;;;;;;;3.15;1.50;;;;;;;;;;5053706;28;20029;-44
2021/06/17 11:58:49;;;;;;;1.73;1.63;;;;;;;;;;5053793;28;20029;-44
2021/06/17 12:01:15;;;;;;;1.63;1.40;;;;;;;;;;5052483;28;20128;-44
2021/06/17 12:03:51;;;;;;;1.45;1.35;;;;;;;;;;5053863;28;20025;-43
2021/06/17 12:06:17;;;;;;;1.75;1.38;;;;;;;;;;5053805;28;20104;-43
2021/06/17 12:08:43;;;;;;;1.95;1.75;;;;;;;;;;5053683;28;20095;-43
2021/06/17 12:11:20;;;;;;;1.52;1.30;;;;;;;;;;5053349;28;20037;-43
2021/06/17 12:13:50;;;;;;;2.08;1.50;;;;;;;;;;5059823;28;20049;-43
2021/06/17 12:16:20;;;;;;;3.27;1.60;;;;;;;;;;5073291;28;20025;-43
2021/06/17 12:18:46;;;;;;;4.93;2.03;;;;;;;;;;5073552;28;20375;-44
2021/06/17 12:21:21;;;;;;;1.88;1.70;;;;;;;;;;5073257;28;20025;-44
2021/06/17 12:23:47;;;;;;;1.58;1.40;;;;;;;;;;5073119;28;20060;-43
2021/06/17 12:26:14;;;;;;;3.05;1.60;;;;;;;;;;5073050;28;20453;-44
2021/06/17 12:28:50;;;;;;;2.13;1.45;;;;;;;;;;5073433;28;20055;-44
2021/06/17 12:31:25;;;;;;;3.42;1.60;;;;;;;;;;5073156;28;20037;-44
2021/06/17 12:33:51;;;;;;;2.35;1.40;;;;;;;;;;5073329;28;20025;-43
2021/06/17 12:36:17;;;;;;;1.90;1.50;;;;;;;;;;5073389;28;20071;-44
2021/06/17 12:38:44;;;;;;;3.55;1.60;;;;;;;;;;5073033;28;20537;-44
2021/06/17 12:41:13;;;;;;;4.60;1.70;;;;;;;;;;5073015;28;20032;-43
2021/06/17 12:43:42;;;;;;;3.00;1.67;;;;;;;;;;5073160;28;20033;-43
2021/06/17 12:46:08;;;;;;;1.83;1.48;;;;;;;;;;5073014;28;20042;-43
2021/06/17 12:54:08;;;;;;;2.40;1.60;;;;;;;;;;5073203;28;20116;-43
2021/06/17 12:56:35;;;;;;;2.85;1.85;;;;;;;;;;5072759;28;20032;-43
2021/06/17 12:59:01;;;;;;;2.08;1.83;;;;;;;;;;5073213;28;20472;-43
2021/06/17 13:01:44;;;;;;;2.58;1.80;;;;;;;;;;5072923;28;20055;-43
2021/06/17 13:04:14;;;;;;;2.40;1.70;;;;;;;;;;5073048;28;20028;-43
2021/06/17 13:06:40;;;;;;;8.10;2.00;;;;;;;;;;5073053;28;20021;-43
2021/06/17 13:09:19;;;;;;;3.95;2.10;;;;;;;;;;5072802;28;20036;-43
2021/06/17 13:11:45;;;;;;;2.25;1.63;;;;;;;;;;5072789;28;20021;-43
2021/06/17 13:14:11;;;;;;;2.95;2.10;;;;;;;;;;5071337;28;20044;-43
2021/06/17 13:16:37;;;;;;;4.38;1.70;;;;;;;;;;5072112;28;20052;-43
2021/06/17 13:19:10;;;;;;;72.72;53.97;;;;;;;;;;5072183;28;20020;-43
2021/06/17 13:21:37;;;;;;;102.65;62.90;;;;;;;;;;5072174;28;20028;-43
2021/06/17 13:24:17;;;;;;;139.70;77.90;;;;;;;;;;5071978;28;20020;-43
2021/06/17 13:26:43;;;;;;;16.70;10.95;;;;;;;;;;5070359;28;20052;-44
2021/06/17 13:29:13;;;;;;;124.82;95.57;;;;;;;;;;5072690;28;20029;-43
2021/06/17 13:31:40;;;;;;;97.95;74.75;;;;;;;;;;5092621;28;20024;-42
2021/06/17 13:34:07;;;;;;;61.00;47.22;;;;;;;;;;5089740;28;20031;-43
2021/06/17 13:36:34;;;;;;;19.30;14.18;;;;;;;;;;5091177;28;20026;-42
2021/06/17 13:39:00;;;;;;;130.90;72.25;;;;;;;;;;5091017;28;20035;-43
2021/06/17 13:41:27;;;;;;;42.95;30.65;;;;;;;;;;5082173;28;20025;-43
2021/06/17 13:43:54;;;;;;;3.47;2.40;;;;;;;;;;5087210;28;20040;-44
2021/06/17 13:46:20;;;;;;;52.50;35.53;;;;;;;;;;5092875;28;20107;-43
2021/06/17 13:48:49;;;;;;;25.38;19.55;;;;;;;;;;5092571;28;20084;-44
2021/06/17 13:51:15;;;;;;;213.90;140.07;;;;;;;;;;5095311;28;20032;-44
2021/06/17 13:53:42;;;;;;;149.80;104.43;;;;;;;;;;5096198;28;20017;-42
2021/06/17 13:56:09;;;;;;;133.05;90.10;;;;;;;;;;5096100;28;20042;-43
2021/06/17 13:58:35;;;;;;;153.85;114.10;;;;;;;;;;5096240;28;20155;-43
2021/06/17 14:01:02;;;;;;;65.90;46.80;;;;;;;;;;5094665;28;20495;-44
2021/06/17 14:03:29;;;;;;;26.85;18.63;;;;;;;;;;5095968;28;20031;-43
2021/06/17 14:05:55;;;;;;;54.60;40.72;;;;;;;;;;5095656;28;20024;-42
2021/06/17 14:08:22;;;;;;;87.70;65.18;;;;;;;;;;5095667;28;20020;-42
2021/06/17 14:10:48;;;;;;;86.03;63.40;;;;;;;;;;5095567;28;20471;-42
2021/06/17 14:13:14;;;;;;;184.35;144.85;;;;;;;;;;5094094;28;20035;-41
2021/06/17 14:15:40;;;;;;;21.60;14.77;;;;;;;;;;5092225;28;20055;-41
2021/06/17 14:18:08;;;;;;;38.13;30.15;;;;;;;;;;5091398;28;20472;-41
2021/06/17 14:20:34;;;;;;;110.05;80.88;;;;;;;;;;5095835;28;20016;-41
2021/06/17 14:23:01;;;;;;;35.33;24.23;;;;;;;;;;5095786;28;20024;-42
2021/06/17 14:25:27;;;;;;;123.22;89.07;;;;;;;;;;5095552;28;20025;-42
2021/06/17 14:27:53;;;;;;;92.95;68.53;;;;;;;;;;5095285;28;20388;-43
2021/06/17 14:30:20;;;;;;;48.60;38.65;;;;;;;;;;5093971;28;20093;-42
2021/06/17 14:32:46;;;;;;;9.20;7.13;;;;;;;;;;5095518;28;20020;-44
2021/06/17 14:35:12;;;;;;;94.50;69.90;;;;;;;;;;5095419;28;20016;-42
2021/06/17 14:37:39;;;;;;;8.13;5.88;;;;;;;;;;5050024;28;20032;-43
2021/06/17 14:40:06;;;;;;;121.18;89.18;;;;;;;;;;5044516;28;20033;-43
2021/06/17 14:42:32;;;;;;;64.47;46.83;;;;;;;;;;5060258;28;20599;-43
2021/06/17 14:44:58;;;;;;;14.13;8.23;;;;;;;;;;5045298;28;20114;-43
2021/06/17 14:47:24;;;;;;;70.95;52.55;;;;;;;;;;5045983;28;20025;-42
2021/06/17 14:49:52;;;;;;;39.17;28.42;;;;;;;;;;5044222;28;20025;-43
2021/06/17 14:52:18;;;;;;;146.27;116.43;;;;;;;;;;5044229;28;20086;-43